createdAt,value
2018-12-15T00:00:46.123Z,71.96
2018-12-15T00:03:16.675Z,72.37
2018-12-15T00:05:49.308Z,72.41
2018-12-15T00:08:23.853Z,72.06
2018-12-15T00:13:47.034Z,72.00
2018-12-15T00:16:18.915Z,71.84
2018-12-15T00:18:51.460Z,71.62
2018-12-15T00:21:23.472Z,71.76
2018-12-15T00:23:55.855Z,71.52
2018-12-15T00:26:28.469Z,71.26
2018-12-15T00:29:00.216Z,71.61
2018-12-15T00:31:32.840Z,71.31
2018-12-15T00:34:07.125Z,70.17
2018-12-15T00:36:39.029Z,70.93
2018-12-15T00:39:09.292Z,70.73
2018-12-15T00:41:41.647Z,70.08
2018-12-15T00:44:16.228Z,70.70
2018-12-15T00:49:20.079Z,70.03
2018-12-15T00:51:52.256Z,70.28
2018-12-15T00:54:24.413Z,70.01
2018-12-15T00:56:56.068Z,70.10
2018-12-15T00:59:26.644Z,70.47
2018-12-15T01:01:59.237Z,70.12
2018-12-15T01:04:31.145Z,69.50
2018-12-15T01:07:03.197Z,70.54
2018-12-15T01:09:35.668Z,70.04
2018-12-15T01:12:07.700Z,70.17
2018-12-15T01:14:40.004Z,70.37
2018-12-15T01:17:12.217Z,69.40
2018-12-15T01:19:44.463Z,69.65
2018-12-15T01:22:16.539Z,69.97
2018-12-15T01:24:49.316Z,69.76
2018-12-15T01:27:21.058Z,69.75
2018-12-15T01:29:53.543Z,69.17
2018-12-15T01:32:23.867Z,69.08
2018-12-15T01:34:56.166Z,69.77
2018-12-15T01:37:27.070Z,69.26
2018-12-15T01:39:59.463Z,69.87
2018-12-15T01:42:31.973Z,69.14
2018-12-15T01:45:06.395Z,69.28
2018-12-15T01:47:35.200Z,70.07
2018-12-15T01:50:07.350Z,69.98
2018-12-15T01:52:39.467Z,69.96
2018-12-15T01:55:11.590Z,70.07
2018-12-15T01:57:44.151Z,69.60
2018-12-15T02:00:16.190Z,70.45
2018-12-15T02:02:46.544Z,69.79
2018-12-15T02:05:18.684Z,70.29
2018-12-15T02:07:51.008Z,70.08
2018-12-15T02:10:22.564Z,70.36
2018-12-15T02:12:55.080Z,71.44
2018-12-15T02:15:27.342Z,70.58
2018-12-15T02:18:00.098Z,70.73
2018-12-15T02:20:31.903Z,69.91
2018-12-15T02:23:04.883Z,69.82
2018-12-15T02:25:37.313Z,70.57
2018-12-15T02:28:09.337Z,71.11
2018-12-15T02:30:41.645Z,70.52
2018-12-15T02:33:16.029Z,70.67
2018-12-15T02:35:47.921Z,70.41
2018-12-15T02:38:20.016Z,70.85
2018-12-15T02:40:52.407Z,71.04
2018-12-15T02:43:25.147Z,70.61
2018-12-15T02:45:58.219Z,70.86
2018-12-15T02:48:31.956Z,70.79
2018-12-15T02:51:04.416Z,70.94
2018-12-15T02:53:37.510Z,70.05
2018-12-15T02:56:10.353Z,70.56
2018-12-15T02:58:44.620Z,70.67
2018-12-15T03:01:15.732Z,71.25
2018-12-15T03:03:50.124Z,70.72
2018-12-15T03:06:23.162Z,71.21
2018-12-15T03:08:58.953Z,71.07
2018-12-15T03:11:32.795Z,70.55
2018-12-15T03:14:06.361Z,70.72
2018-12-15T03:16:43.988Z,71.36
2018-12-15T03:19:17.344Z,71.08
2018-12-15T03:21:49.732Z,70.92
2018-12-15T03:24:22.302Z,71.65
2018-12-15T03:26:54.803Z,71.11
2018-12-15T03:29:29.232Z,70.99
2018-12-15T03:32:02.524Z,70.68
2018-12-15T03:34:36.281Z,70.60
2018-12-15T03:37:08.512Z,70.61
2018-12-15T03:39:41.924Z,70.78
2018-12-15T03:42:12.488Z,71.41
2018-12-15T03:44:45.062Z,71.38
2018-12-15T03:47:15.901Z,71.54
2018-12-15T03:49:48.726Z,72.01
2018-12-15T03:52:22.355Z,71.51
2018-12-15T03:54:55.918Z,71.66
2018-12-15T03:57:29.139Z,71.77
2018-12-15T04:00:03.224Z,71.80
2018-12-15T04:02:39.615Z,72.73
2018-12-15T04:05:09.897Z,72.25
2018-12-15T04:07:43.131Z,71.77
2018-12-15T04:10:15.492Z,71.84
2018-12-15T04:12:48.281Z,71.46
2018-12-15T04:15:21.482Z,72.32
2018-12-15T04:18:03.455Z,71.76
2018-12-15T04:20:33.722Z,70.89
2018-12-15T04:23:06.696Z,71.63
2018-12-15T04:25:39.249Z,71.36
2018-12-15T04:28:11.948Z,71.05
2018-12-15T04:30:44.487Z,70.83
2018-12-15T04:33:15.336Z,71.27
2018-12-15T04:35:47.221Z,71.90
2018-12-15T04:38:19.217Z,71.25
2018-12-15T04:40:51.876Z,71.20
2018-12-15T04:43:24.125Z,71.88
2018-12-15T04:45:55.853Z,71.46
2018-12-15T04:48:29.419Z,71.82
2018-12-15T04:51:03.481Z,72.21
2018-12-15T04:53:38.873Z,72.01
2018-12-15T04:56:12.311Z,71.87
2018-12-15T04:58:45.432Z,71.96
2018-12-15T05:01:19.004Z,72.01
2018-12-15T05:03:52.269Z,72.22
2018-12-15T05:06:25.122Z,71.98
2018-12-15T05:08:58.436Z,71.41
2018-12-15T05:11:31.233Z,70.67
2018-12-15T05:14:04.280Z,71.37
2018-12-15T05:16:38.613Z,70.72
2018-12-15T05:19:26.750Z,70.53
2018-12-15T05:21:59.658Z,70.94
2018-12-15T05:24:32.368Z,71.05
2018-12-15T05:27:06.867Z,71.60
2018-12-15T05:29:40.195Z,71.35
2018-12-15T05:32:13.040Z,72.05
2018-12-15T05:34:50.887Z,70.97
2018-12-15T05:37:24.296Z,70.78
2018-12-15T05:39:57.398Z,71.64
2018-12-15T05:42:30.715Z,72.48
2018-12-15T05:45:03.909Z,71.78
2018-12-15T05:47:38.372Z,71.04
2018-12-15T05:50:10.956Z,71.38
2018-12-15T05:52:43.963Z,71.74
2018-12-15T05:55:20.016Z,71.38
2018-12-15T05:57:55.508Z,72.24
2018-12-15T06:00:28.185Z,71.34
2018-12-15T06:03:02.243Z,70.36
2018-12-15T06:05:36.438Z,70.96
2018-12-15T06:08:08.920Z,71.04
2018-12-15T06:10:41.936Z,71.32
2018-12-15T06:13:15.269Z,71.25
2018-12-15T06:15:48.502Z,71.04
2018-12-15T06:18:21.470Z,70.90
2018-12-15T06:20:52.532Z,70.68
2018-12-15T06:23:25.706Z,70.26
2018-12-15T06:25:56.615Z,70.52
2018-12-15T06:28:30.481Z,70.55
2018-12-15T06:31:03.851Z,70.05
2018-12-15T06:33:36.759Z,70.67
2018-12-15T06:36:12.788Z,70.50
2018-12-15T06:38:45.352Z,70.09
2018-12-15T06:41:18.426Z,69.54
2018-12-15T06:43:51.100Z,68.78
2018-12-15T06:46:24.274Z,67.55
2018-12-15T06:48:57.357Z,66.16
2018-12-15T06:51:30.875Z,66.33
2018-12-15T06:54:04.872Z,66.84
2018-12-15T06:59:09.542Z,66.58
2018-12-15T07:01:42.143Z,66.44
2018-12-15T07:04:15.509Z,66.71
2018-12-15T07:06:47.885Z,66.51
2018-12-15T07:09:21.292Z,67.02
2018-12-15T07:11:53.927Z,67.54
2018-12-15T07:14:26.624Z,66.46
2018-12-15T07:16:58.005Z,66.69
2018-12-15T07:19:30.057Z,67.21
2018-12-15T07:22:02.360Z,66.67
2018-12-15T07:24:34.806Z,67.20
2018-12-15T07:27:09.198Z,66.06
2018-12-15T07:29:41.064Z,66.86
2018-12-15T07:32:13.392Z,66.76
2018-12-15T07:34:45.746Z,65.85
2018-12-15T07:37:18.879Z,65.82
2018-12-15T07:39:52.085Z,66.12
2018-12-15T07:42:26.422Z,65.73
2018-12-15T07:44:59.122Z,65.77
2018-12-15T07:47:31.859Z,65.41
2018-12-15T07:50:05.084Z,66.62
2018-12-15T07:52:37.244Z,66.49
2018-12-15T07:55:08.859Z,66.06
2018-12-15T07:57:40.925Z,66.10
2018-12-15T08:00:13.404Z,64.77
2018-12-15T08:02:45.613Z,65.22
2018-12-15T08:05:18.860Z,65.32
2018-12-15T08:07:51.376Z,66.22
2018-12-15T08:10:25.127Z,65.02
2018-12-15T08:12:57.760Z,65.43
2018-12-15T08:15:29.952Z,65.06
2018-12-15T08:18:02.228Z,64.12
2018-12-15T08:20:34.650Z,64.58
2018-12-15T08:23:09.695Z,65.44
2018-12-15T08:25:42.399Z,64.59
2018-12-15T08:28:14.468Z,63.96
2018-12-15T08:30:46.992Z,63.82
2018-12-15T08:33:18.612Z,63.67
2018-12-15T08:35:52.207Z,64.12
2018-12-15T08:38:29.207Z,64.10
2018-12-15T08:41:01.282Z,64.52
2018-12-15T08:43:33.236Z,64.08
2018-12-15T08:46:07.283Z,64.21
2018-12-15T08:48:39.519Z,64.39
2018-12-15T08:51:12.268Z,65.29
2018-12-15T08:53:45.263Z,64.31
2018-12-15T08:56:17.175Z,64.92
2018-12-15T08:58:49.232Z,64.95
2018-12-15T09:01:21.296Z,65.14
2018-12-15T09:03:53.762Z,65.56
2018-12-15T09:06:25.971Z,66.17
2018-12-15T09:09:12.071Z,65.38
2018-12-15T09:11:44.022Z,66.00
2018-12-15T09:14:18.085Z,65.73
2018-12-15T09:16:50.467Z,66.41
2018-12-15T09:19:22.771Z,66.28
2018-12-15T09:21:54.699Z,65.96
2018-12-15T09:24:25.318Z,66.93
2018-12-15T09:26:59.732Z,66.69
2018-12-15T09:29:35.569Z,67.26
2018-12-15T09:32:10.705Z,66.43
2018-12-15T09:34:45.059Z,66.56
2018-12-15T09:37:20.173Z,67.19
2018-12-15T09:39:54.668Z,66.42
2018-12-15T09:42:29.193Z,66.17
2018-12-15T09:45:02.322Z,67.05
2018-12-15T09:47:34.797Z,67.35
2018-12-15T09:50:07.903Z,67.17
2018-12-15T09:52:40.731Z,66.03
2018-12-15T09:55:13.607Z,66.52
2018-12-15T09:57:47.177Z,67.04
2018-12-15T10:00:19.859Z,65.97
2018-12-15T10:02:50.542Z,65.82
2018-12-15T10:05:23.344Z,65.51
2018-12-15T10:07:56.865Z,66.12
2018-12-15T10:10:29.832Z,65.66
2018-12-15T10:13:01.525Z,66.42
2018-12-15T10:15:36.113Z,66.35
2018-12-15T10:18:08.954Z,66.00
2018-12-15T10:20:42.595Z,66.56
2018-12-15T10:23:15.150Z,66.05
2018-12-15T10:26:07.609Z,67.16
2018-12-15T10:28:39.581Z,65.85
2018-12-15T10:31:17.106Z,66.03
2018-12-15T10:33:50.242Z,65.75
2018-12-15T10:36:23.054Z,65.79
2018-12-15T10:38:56.826Z,65.30
2018-12-15T10:41:29.038Z,65.56
2018-12-15T10:44:02.324Z,65.43
2018-12-15T10:46:34.389Z,66.42
2018-12-15T10:49:15.728Z,65.42
2018-12-15T10:51:55.687Z,67.14
2018-12-15T10:54:27.993Z,65.65
2018-12-15T10:57:00.055Z,66.58
2018-12-15T10:59:34.604Z,66.22
2018-12-15T11:02:07.639Z,65.64
2018-12-15T11:04:40.977Z,65.40
2018-12-15T11:07:13.981Z,66.59
2018-12-15T11:09:46.559Z,66.08
2018-12-15T11:12:18.828Z,66.24
2018-12-15T11:14:51.520Z,65.62
2018-12-15T11:17:23.616Z,66.01
2018-12-15T11:19:56.016Z,65.38
2018-12-15T11:22:28.824Z,65.15
2018-12-15T11:25:03.060Z,65.03
2018-12-15T11:27:35.433Z,63.63
2018-12-15T11:30:10.614Z,64.68
2018-12-15T11:32:43.184Z,65.01
2018-12-15T11:35:15.192Z,66.39
2018-12-15T11:37:47.413Z,64.02
2018-12-15T11:40:19.732Z,65.83
2018-12-15T11:42:57.631Z,64.84
2018-12-15T11:45:27.885Z,64.67
2018-12-15T11:48:00.210Z,64.68
2018-12-15T11:50:32.277Z,64.71
2018-12-15T11:53:04.764Z,64.88
2018-12-15T11:55:37.366Z,63.94
2018-12-15T11:58:09.736Z,64.08
2018-12-15T12:00:42.357Z,65.03
2018-12-15T12:03:14.737Z,64.29
2018-12-15T12:05:46.955Z,64.87
2018-12-15T12:08:19.565Z,65.07
2018-12-15T12:10:51.911Z,64.80
2018-12-15T12:13:23.938Z,64.70
2018-12-15T12:15:56.426Z,65.46
2018-12-15T12:18:30.757Z,64.49
2018-12-15T12:21:02.757Z,64.89
2018-12-15T12:23:34.877Z,65.68
2018-12-15T12:26:07.957Z,65.41
2018-12-15T12:28:38.480Z,65.36
2018-12-15T12:31:13.063Z,64.94
2018-12-15T12:33:44.185Z,65.21
2018-12-15T12:36:16.651Z,66.03
2018-12-15T12:38:48.908Z,64.99
2018-12-15T12:41:21.358Z,65.53
2018-12-15T12:43:54.352Z,65.00
2018-12-15T12:46:25.488Z,64.82
2018-12-15T12:48:58.388Z,65.58
2018-12-15T12:51:30.594Z,65.43
2018-12-15T12:54:03.302Z,65.29
2018-12-15T12:56:35.744Z,65.25
2018-12-15T13:02:01.628Z,65.08
2018-12-15T13:04:33.990Z,66.07
2018-12-15T13:07:06.354Z,64.99
2018-12-15T13:09:39.160Z,65.84
2018-12-15T13:12:12.281Z,65.90
2018-12-15T13:14:42.666Z,66.05
2018-12-15T13:17:15.471Z,65.48
2018-12-15T13:19:47.848Z,65.91
2018-12-15T13:22:20.803Z,65.49
2018-12-15T13:24:50.820Z,65.53
2018-12-15T13:27:22.156Z,66.09
2018-12-15T13:29:55.017Z,66.41
2018-12-15T13:32:27.036Z,66.52
2018-12-15T13:34:59.381Z,66.79
2018-12-15T13:37:33.910Z,66.73
2018-12-15T13:40:07.101Z,66.95
2018-12-15T13:42:42.803Z,66.86
2018-12-15T13:45:17.050Z,67.11
2018-12-15T13:47:51.867Z,66.27
2018-12-15T13:50:26.768Z,65.84
2018-12-15T13:53:00.995Z,66.78
2018-12-15T13:55:35.169Z,66.44
2018-12-15T13:58:10.156Z,66.56
2018-12-15T14:00:43.763Z,66.87
2018-12-15T14:03:16.293Z,66.56
2018-12-15T14:05:47.547Z,64.52
2018-12-15T14:08:18.026Z,65.27
2018-12-15T14:10:50.829Z,65.88
2018-12-15T14:13:24.478Z,66.05
2018-12-15T14:18:54.632Z,66.85
2018-12-15T14:21:26.475Z,66.67
2018-12-15T14:23:58.607Z,66.95
2018-12-15T14:26:32.880Z,67.00
2018-12-15T14:29:07.182Z,67.15
2018-12-15T14:31:39.426Z,66.92
2018-12-15T14:34:13.654Z,67.02
2018-12-15T14:36:47.954Z,67.11
2018-12-15T14:39:22.779Z,65.59
2018-12-15T14:41:55.506Z,65.93
2018-12-15T14:44:29.530Z,65.24
2018-12-15T14:47:03.716Z,64.87
2018-12-15T14:49:38.040Z,65.10
2018-12-15T14:52:11.967Z,64.97
2018-12-15T14:54:44.574Z,65.70
2018-12-15T14:57:22.162Z,65.78
2018-12-15T14:59:55.040Z,65.72
2018-12-15T15:02:29.385Z,66.27
2018-12-15T15:05:02.977Z,66.75
2018-12-15T15:07:35.317Z,66.94
2018-12-15T15:10:08.125Z,68.35
2018-12-15T15:12:40.531Z,67.37
2018-12-15T15:15:22.003Z,67.72
2018-12-15T15:18:00.545Z,68.08
2018-12-15T15:20:33.097Z,68.84
2018-12-15T15:23:08.179Z,69.04
2018-12-15T15:25:40.237Z,69.00
2018-12-15T15:28:12.516Z,68.82
2018-12-15T15:30:46.104Z,68.80
2018-12-15T15:33:27.817Z,68.37
2018-12-15T15:36:00.365Z,67.98
2018-12-15T15:38:32.550Z,68.34
2018-12-15T15:41:05.174Z,68.44
2018-12-15T15:43:39.884Z,69.47
2018-12-15T15:46:12.455Z,68.47
2018-12-15T15:48:44.829Z,69.10
2018-12-15T15:51:17.197Z,68.92
2018-12-15T15:53:49.453Z,69.17
2018-12-15T15:56:23.902Z,68.89
2018-12-15T15:58:56.405Z,68.37
2018-12-15T16:01:28.965Z,68.60
2018-12-15T16:04:01.032Z,68.56
2018-12-15T16:06:33.707Z,69.23
2018-12-15T16:09:09.184Z,69.27
2018-12-15T16:11:43.114Z,69.93
2018-12-15T16:14:15.366Z,70.07
2018-12-15T16:16:47.774Z,70.94
2018-12-15T16:19:22.236Z,71.57
2018-12-15T16:21:54.769Z,71.37
2018-12-15T16:24:27.129Z,70.35
2018-12-15T16:26:59.200Z,70.38
2018-12-15T16:29:32.024Z,70.48
2018-12-15T16:32:03.904Z,70.76
2018-12-15T16:34:36.369Z,71.49
2018-12-15T16:37:08.443Z,72.14
2018-12-15T16:39:40.769Z,71.68
2018-12-15T16:42:13.659Z,71.51
2018-12-15T16:44:45.710Z,72.40
2018-12-15T16:47:17.864Z,72.75
2018-12-15T16:52:42.289Z,73.21
2018-12-15T16:55:14.335Z,74.02
2018-12-15T16:57:46.482Z,74.60
2018-12-15T17:00:16.682Z,74.60
2018-12-15T17:02:46.986Z,74.20
2018-12-15T17:05:19.251Z,74.15
2018-12-15T17:07:51.747Z,74.79
2018-12-15T17:10:22.009Z,75.25
2018-12-15T17:12:55.360Z,76.02
2018-12-15T17:15:27.515Z,75.35
2018-12-15T17:17:59.651Z,76.34
2018-12-15T17:20:31.786Z,75.99
2018-12-15T17:23:04.150Z,76.74
2018-12-15T17:25:38.844Z,77.03
2018-12-15T17:28:10.669Z,76.59
2018-12-15T17:30:41.161Z,76.48
2018-12-15T17:33:13.305Z,77.04
2018-12-15T17:35:45.594Z,76.84
2018-12-15T17:38:16.004Z,77.73
2018-12-15T17:40:48.345Z,77.01
2018-12-15T17:43:21.088Z,76.50
2018-12-15T17:45:51.237Z,75.84
2018-12-15T17:48:25.630Z,75.78
2018-12-15T17:51:03.078Z,76.02
2018-12-15T17:53:31.844Z,75.78
2018-12-15T17:56:04.900Z,75.49
2018-12-15T17:58:37.463Z,74.88
2018-12-15T18:01:09.821Z,75.35
2018-12-15T18:03:42.078Z,75.16
2018-12-15T18:06:16.419Z,75.37
2018-12-15T18:08:48.324Z,74.70
2018-12-15T18:11:20.603Z,75.69
2018-12-15T18:13:53.079Z,74.86
2018-12-15T18:16:24.673Z,74.21
2018-12-15T18:18:57.232Z,74.87
2018-12-15T18:21:29.015Z,75.02
2018-12-15T18:31:33.341Z,75.45
2018-12-15T18:34:05.354Z,74.97
2018-12-15T18:36:37.611Z,75.07
2018-12-15T18:39:09.732Z,74.99
2018-12-15T18:41:42.064Z,74.83
2018-12-15T18:44:12.454Z,75.00
2018-12-15T18:46:44.385Z,74.72
2018-12-15T18:49:16.801Z,75.01
2018-12-15T18:51:49.192Z,75.17
2018-12-15T18:54:21.417Z,74.77
2018-12-15T18:56:53.457Z,74.72
2018-12-15T18:59:25.854Z,74.96
2018-12-15T19:01:57.879Z,75.10
2018-12-15T19:04:30.512Z,75.70
2018-12-15T19:07:02.407Z,75.44
2018-12-15T19:09:34.722Z,75.33
2018-12-15T19:12:06.870Z,75.43
2018-12-15T19:14:40.337Z,76.03
2018-12-15T19:17:13.025Z,76.20
2018-12-15T19:19:43.568Z,76.11
2018-12-15T19:22:15.777Z,76.17
2018-12-15T19:24:47.899Z,75.97
2018-12-15T19:27:20.396Z,75.87
2018-12-15T19:29:52.256Z,75.26
2018-12-15T19:34:56.543Z,75.84
2018-12-15T19:37:28.512Z,75.18
2018-12-15T19:40:03.735Z,75.22
2018-12-15T19:42:34.045Z,74.77
2018-12-15T19:45:09.431Z,74.36
2018-12-15T19:47:41.748Z,74.69
2018-12-15T19:50:14.128Z,74.83
2018-12-15T19:52:44.610Z,74.44
2018-12-15T19:55:16.911Z,74.83
2018-12-15T19:57:48.935Z,74.75
2018-12-15T20:00:21.253Z,74.70
2018-12-15T20:02:53.728Z,74.84
2018-12-15T20:05:25.927Z,74.27
2018-12-15T20:07:58.355Z,74.22
2018-12-15T20:10:30.366Z,74.85
2018-12-15T20:13:02.393Z,75.09
2018-12-15T20:15:34.483Z,75.24
2018-12-15T20:18:06.765Z,74.30
2018-12-15T20:20:38.541Z,74.69
2018-12-15T20:23:10.756Z,74.42
2018-12-15T20:25:42.948Z,74.50
2018-12-15T20:28:15.986Z,74.29
2018-12-15T20:30:48.500Z,74.68
2018-12-15T20:33:20.696Z,74.77
2018-12-15T20:38:22.997Z,75.17
2018-12-15T20:40:56.876Z,74.14
2018-12-15T20:43:29.218Z,74.36
2018-12-15T20:45:59.439Z,74.35
2018-12-15T20:48:32.431Z,74.19
2018-12-15T20:51:04.344Z,74.31
2018-12-15T20:53:36.508Z,74.42
2018-12-15T20:56:08.685Z,74.87
2018-12-15T20:58:38.899Z,74.48
2018-12-15T21:01:11.188Z,74.63
2018-12-15T21:03:43.991Z,74.72
2018-12-15T21:06:15.884Z,74.29
2018-12-15T21:08:48.451Z,74.24
2018-12-15T21:11:24.153Z,74.25
2018-12-15T21:13:56.716Z,74.79
2018-12-15T21:16:28.461Z,73.98
2018-12-15T21:19:01.003Z,74.18
2018-12-15T21:21:30.992Z,74.09
2018-12-15T21:24:03.365Z,74.63
2018-12-15T21:26:38.077Z,74.22
2018-12-15T21:29:09.955Z,74.12
2018-12-15T21:31:42.470Z,74.73
2018-12-15T21:34:15.094Z,74.65
2018-12-15T21:36:49.877Z,74.75
2018-12-15T21:41:54.188Z,74.11
2018-12-15T21:44:26.554Z,74.64
2018-12-15T21:46:58.779Z,74.62
2018-12-15T21:49:31.094Z,74.18
2018-12-15T21:52:03.222Z,74.23
2018-12-15T21:54:35.761Z,74.92
2018-12-15T22:00:01.470Z,74.39
2018-12-15T22:02:34.304Z,74.99
2018-12-15T22:05:06.567Z,75.22
2018-12-15T22:07:40.586Z,74.72
2018-12-15T22:10:12.201Z,75.25
2018-12-15T22:12:45.304Z,74.33
2018-12-15T22:15:19.704Z,74.82
2018-12-15T22:17:51.875Z,74.36
2018-12-15T22:20:25.978Z,74.99
2018-12-15T22:22:57.929Z,74.96
2018-12-15T22:25:30.335Z,74.57
2018-12-15T22:28:02.601Z,74.79
2018-12-15T22:30:35.116Z,74.45
2018-12-15T22:33:07.378Z,74.16
2018-12-15T22:35:37.517Z,73.73
2018-12-15T22:38:10.152Z,74.59
2018-12-15T22:40:42.061Z,73.29
2018-12-15T22:43:14.367Z,73.84
2018-12-15T22:45:47.020Z,74.48
2018-12-15T22:48:19.642Z,73.30
2018-12-15T22:50:51.798Z,73.60
2018-12-15T22:53:24.012Z,73.70
2018-12-15T22:55:57.188Z,72.83
2018-12-15T22:58:29.742Z,73.03
2018-12-15T23:01:06.876Z,73.18
2018-12-15T23:03:39.335Z,73.02
2018-12-15T23:06:11.705Z,72.66
2018-12-15T23:08:44.164Z,73.33
2018-12-15T23:11:16.852Z,73.30
2018-12-15T23:16:43.470Z,73.41
2018-12-15T23:19:15.533Z,72.79
2018-12-15T23:21:47.626Z,73.19
2018-12-15T23:24:17.998Z,73.26
2018-12-15T23:26:50.935Z,72.87
2018-12-15T23:29:26.515Z,72.75
2018-12-15T23:31:58.345Z,72.12
2018-12-15T23:34:30.909Z,73.17
2018-12-15T23:37:03.136Z,73.53
2018-12-15T23:39:35.531Z,73.13
2018-12-15T23:42:10.176Z,72.98
2018-12-15T23:44:42.446Z,73.13
2018-12-15T23:47:14.008Z,73.58
2018-12-15T23:49:46.163Z,73.58
2018-12-15T23:52:23.333Z,72.92
2018-12-15T23:54:53.305Z,73.30
2018-12-15T23:57:26.757Z,72.98
2018-12-15T23:59:58.503Z,73.25
